sensor_id;sensor_type;location;lat;lon;timestamp;P1;durP1;ratioP1;P2;durP2;ratioP2
19347;SDS011;9810;52.480;9.806;2023-02-28T00:00:54;3.17;;;2.57;;
19347;SDS011;9810;52.480;9.806;2023-02-28T00:03:21;4.73;;;2.90;;
19347;SDS011;9810;52.480;9.806;2023-02-28T00:05:48;6.87;;;2.80;;
19347;SDS011;9810;52.480;9.806;2023-02-28T00:08:16;4.27;;;3.27;;
19347;SDS011;9810;52.480;9.806;2023-02-28T00:10:43;3.37;;;2.70;;
19347;SDS011;9810;52.480;9.806;2023-02-28T00:13:10;7.47;;;3.30;;
19347;SDS011;9810;52.480;9.806;2023-02-28T00:15:39;5.70;;;3.33;;
19347;SDS011;9810;52.480;9.806;2023-02-28T00:18:07;6.53;;;3.17;;
19347;SDS011;9810;52.480;9.806;2023-02-28T00:20:34;3.77;;;3.40;;
19347;SDS011;9810;52.480;9.806;2023-02-28T00:23:01;5.63;;;3.30;;
19347;SDS011;9810;52.480;9.806;2023-02-28T00:25:28;7.43;;;3.50;;
19347;SDS011;9810;52.480;9.806;2023-02-28T00:27:56;4.83;;;3.30;;
19347;SDS011;9810;52.480;9.806;2023-02-28T00:30:23;6.93;;;2.90;;
19347;SDS011;9810;52.480;9.806;2023-02-28T00:32:52;6.97;;;4.23;;
19347;SDS011;9810;52.480;9.806;2023-02-28T00:35:19;4.17;;;3.20;;
19347;SDS011;9810;52.480;9.806;2023-02-28T00:37:47;5.53;;;3.37;;
19347;SDS011;9810;52.480;9.806;2023-02-28T00:40:15;7.93;;;4.23;;
19347;SDS011;9810;52.480;9.806;2023-02-28T00:42:42;6.37;;;4.10;;
19347;SDS011;9810;52.480;9.806;2023-02-28T00:45:10;7.40;;;3.80;;
19347;SDS011;9810;52.480;9.806;2023-02-28T00:47:37;8.40;;;4.00;;
19347;SDS011;9810;52.480;9.806;2023-02-28T00:50:08;8.80;;;3.87;;
19347;SDS011;9810;52.480;9.806;2023-02-28T00:52:36;8.53;;;3.67;;
19347;SDS011;9810;52.480;9.806;2023-02-28T00:55:04;6.57;;;3.50;;
19347;SDS011;9810;52.480;9.806;2023-02-28T00:57:31;5.93;;;3.40;;
19347;SDS011;9810;52.480;9.806;2023-02-28T00:59:59;7.20;;;3.47;;
19347;SDS011;9810;52.480;9.806;2023-02-28T01:02:26;7.83;;;3.10;;
19347;SDS011;9810;52.480;9.806;2023-02-28T01:04:53;7.70;;;3.50;;
19347;SDS011;9810;52.480;9.806;2023-02-28T01:07:23;8.53;;;4.33;;
19347;SDS011;9810;52.480;9.806;2023-02-28T01:09:50;10.10;;;4.37;;
19347;SDS011;9810;52.480;9.806;2023-02-28T01:12:18;5.57;;;3.83;;
19347;SDS011;9810;52.480;9.806;2023-02-28T01:14:45;5.43;;;3.57;;
19347;SDS011;9810;52.480;9.806;2023-02-28T01:17:12;11.10;;;4.00;;
19347;SDS011;9810;52.480;9.806;2023-02-28T01:19:39;5.47;;;3.93;;
19347;SDS011;9810;52.480;9.806;2023-02-28T01:22:07;5.13;;;3.37;;
19347;SDS011;9810;52.480;9.806;2023-02-28T01:24:36;6.57;;;3.30;;
19347;SDS011;9810;52.480;9.806;2023-02-28T01:27:04;4.57;;;2.87;;
19347;SDS011;9810;52.480;9.806;2023-02-28T01:29:31;7.33;;;3.70;;
19347;SDS011;9810;52.480;9.806;2023-02-28T01:31:58;7.67;;;3.37;;
19347;SDS011;9810;52.480;9.806;2023-02-28T01:34:26;4.57;;;3.13;;
19347;SDS011;9810;52.480;9.806;2023-02-28T01:36:53;3.90;;;2.93;;
19347;SDS011;9810;52.480;9.806;2023-02-28T01:39:20;5.93;;;2.93;;
19347;SDS011;9810;52.480;9.806;2023-02-28T01:41:49;4.17;;;2.87;;
19347;SDS011;9810;52.480;9.806;2023-02-28T01:47:23;6.20;;;3.83;;
19347;SDS011;9810;52.480;9.806;2023-02-28T01:49:52;6.90;;;3.00;;
19347;SDS011;9810;52.480;9.806;2023-02-28T01:52:20;6.43;;;3.27;;
19347;SDS011;9810;52.480;9.806;2023-02-28T01:54:51;7.93;;;3.37;;
19347;SDS011;9810;52.480;9.806;2023-02-28T01:57:23;3.43;;;2.57;;
19347;SDS011;9810;52.480;9.806;2023-02-28T01:59:56;6.63;;;3.00;;
19347;SDS011;9810;52.480;9.806;2023-02-28T02:02:26;4.27;;;2.87;;
19347;SDS011;9810;52.480;9.806;2023-02-28T02:04:56;4.83;;;3.00;;
19347;SDS011;9810;52.480;9.806;2023-02-28T02:07:26;3.00;;;2.53;;
19347;SDS011;9810;52.480;9.806;2023-02-28T02:09:59;5.53;;;3.13;;
19347;SDS011;9810;52.480;9.806;2023-02-28T02:12:31;7.57;;;3.50;;
19347;SDS011;9810;52.480;9.806;2023-02-28T02:15:22;5.97;;;2.77;;
19347;SDS011;9810;52.480;9.806;2023-02-28T02:17:56;6.37;;;3.17;;
19347;SDS011;9810;52.480;9.806;2023-02-28T02:20:30;4.60;;;2.93;;
19347;SDS011;9810;52.480;9.806;2023-02-28T02:23:20;5.33;;;3.13;;
19347;SDS011;9810;52.480;9.806;2023-02-28T02:26:01;5.63;;;2.83;;
19347;SDS011;9810;52.480;9.806;2023-02-28T02:28:51;5.20;;;2.73;;
19347;SDS011;9810;52.480;9.806;2023-02-28T02:31:35;5.83;;;2.63;;
19347;SDS011;9810;52.480;9.806;2023-02-28T02:34:24;8.30;;;3.17;;
19347;SDS011;9810;52.480;9.806;2023-02-28T02:37:00;6.67;;;3.03;;
19347;SDS011;9810;52.480;9.806;2023-02-28T02:39:36;4.97;;;2.97;;
19347;SDS011;9810;52.480;9.806;2023-02-28T02:42:12;4.00;;;2.53;;
19347;SDS011;9810;52.480;9.806;2023-02-28T02:44:45;7.37;;;3.37;;
19347;SDS011;9810;52.480;9.806;2023-02-28T02:47:18;4.10;;;2.97;;
19347;SDS011;9810;52.480;9.806;2023-02-28T02:49:51;4.20;;;3.10;;
19347;SDS011;9810;52.480;9.806;2023-02-28T02:52:22;4.67;;;3.20;;
19347;SDS011;9810;52.480;9.806;2023-02-28T02:54:52;9.20;;;3.80;;
19347;SDS011;9810;52.480;9.806;2023-02-28T02:57:23;4.00;;;2.80;;
19347;SDS011;9810;52.480;9.806;2023-02-28T02:59:54;6.37;;;3.30;;
19347;SDS011;9810;52.480;9.806;2023-02-28T03:02:23;3.60;;;2.77;;
19347;SDS011;9810;52.480;9.806;2023-02-28T03:04:56;8.40;;;3.03;;
19347;SDS011;9810;52.480;9.806;2023-02-28T03:07:27;5.57;;;3.47;;
19347;SDS011;9810;52.480;9.806;2023-02-28T03:09:55;5.33;;;3.13;;
19347;SDS011;9810;52.480;9.806;2023-02-28T03:12:23;6.93;;;3.20;;
19347;SDS011;9810;52.480;9.806;2023-02-28T03:15:01;5.27;;;3.00;;
19347;SDS011;9810;52.480;9.806;2023-02-28T03:17:40;4.13;;;2.60;;
19347;SDS011;9810;52.480;9.806;2023-02-28T03:20:26;6.27;;;3.07;;
19347;SDS011;9810;52.480;9.806;2023-02-28T03:23:03;8.43;;;3.50;;
19347;SDS011;9810;52.480;9.806;2023-02-28T03:25:42;13.77;;;3.93;;
19347;SDS011;9810;52.480;9.806;2023-02-28T03:28:27;4.73;;;3.17;;
19347;SDS011;9810;52.480;9.806;2023-02-28T03:30:59;7.50;;;3.30;;
19347;SDS011;9810;52.480;9.806;2023-02-28T03:33:32;10.45;;;4.63;;
19347;SDS011;9810;52.480;9.806;2023-02-28T03:36:04;8.27;;;3.83;;
19347;SDS011;9810;52.480;9.806;2023-02-28T03:38:38;10.17;;;3.70;;
19347;SDS011;9810;52.480;9.806;2023-02-28T03:41:12;5.47;;;3.00;;
19347;SDS011;9810;52.480;9.806;2023-02-28T03:43:45;10.17;;;3.90;;
19347;SDS011;9810;52.480;9.806;2023-02-28T03:46:18;6.50;;;3.27;;
19347;SDS011;9810;52.480;9.806;2023-02-28T03:48:51;7.43;;;2.43;;
19347;SDS011;9810;52.480;9.806;2023-02-28T03:51:24;6.93;;;3.63;;
19347;SDS011;9810;52.480;9.806;2023-02-28T03:53:54;7.93;;;3.57;;
19347;SDS011;9810;52.480;9.806;2023-02-28T03:56:26;6.80;;;3.10;;
19347;SDS011;9810;52.480;9.806;2023-02-28T03:58:58;4.07;;;3.23;;
19347;SDS011;9810;52.480;9.806;2023-02-28T04:01:31;5.37;;;3.10;;
19347;SDS011;9810;52.480;9.806;2023-02-28T04:04:02;4.43;;;3.03;;
19347;SDS011;9810;52.480;9.806;2023-02-28T04:06:32;9.20;;;3.53;;
19347;SDS011;9810;52.480;9.806;2023-02-28T04:09:00;7.83;;;3.47;;
19347;SDS011;9810;52.480;9.806;2023-02-28T04:11:30;6.67;;;3.53;;
19347;SDS011;9810;52.480;9.806;2023-02-28T04:14:01;4.03;;;2.90;;
19347;SDS011;9810;52.480;9.806;2023-02-28T04:16:29;10.03;;;4.00;;
19347;SDS011;9810;52.480;9.806;2023-02-28T04:18:57;7.17;;;3.43;;
19347;SDS011;9810;52.480;9.806;2023-02-28T04:21:28;5.37;;;3.13;;
19347;SDS011;9810;52.480;9.806;2023-02-28T04:24:00;8.33;;;3.93;;
19347;SDS011;9810;52.480;9.806;2023-02-28T04:26:28;5.40;;;4.33;;
19347;SDS011;9810;52.480;9.806;2023-02-28T04:28:56;7.20;;;3.53;;
19347;SDS011;9810;52.480;9.806;2023-02-28T04:31:25;5.90;;;3.63;;
19347;SDS011;9810;52.480;9.806;2023-02-28T04:33:52;4.93;;;4.00;;
19347;SDS011;9810;52.480;9.806;2023-02-28T04:36:19;5.23;;;3.60;;
19347;SDS011;9810;52.480;9.806;2023-02-28T04:38:49;5.83;;;3.03;;
19347;SDS011;9810;52.480;9.806;2023-02-28T04:41:18;5.80;;;3.40;;
19347;SDS011;9810;52.480;9.806;2023-02-28T04:43:46;9.40;;;3.43;;
19347;SDS011;9810;52.480;9.806;2023-02-28T04:46:13;6.40;;;3.23;;
19347;SDS011;9810;52.480;9.806;2023-02-28T04:48:42;5.60;;;3.73;;
19347;SDS011;9810;52.480;9.806;2023-02-28T04:51:10;7.70;;;3.67;;
19347;SDS011;9810;52.480;9.806;2023-02-28T04:53:39;6.00;;;3.33;;
19347;SDS011;9810;52.480;9.806;2023-02-28T04:56:09;9.50;;;3.17;;
19347;SDS011;9810;52.480;9.806;2023-02-28T04:58:40;4.50;;;3.10;;
19347;SDS011;9810;52.480;9.806;2023-02-28T05:01:15;4.97;;;2.80;;
19347;SDS011;9810;52.480;9.806;2023-02-28T05:03:48;5.60;;;2.90;;
19347;SDS011;9810;52.480;9.806;2023-02-28T05:06:15;6.50;;;3.77;;
19347;SDS011;9810;52.480;9.806;2023-02-28T05:08:43;13.20;;;3.37;;
19347;SDS011;9810;52.480;9.806;2023-02-28T05:11:15;7.57;;;3.73;;
19347;SDS011;9810;52.480;9.806;2023-02-28T05:13:46;3.43;;;2.53;;
19347;SDS011;9810;52.480;9.806;2023-02-28T05:16:13;5.80;;;3.23;;
19347;SDS011;9810;52.480;9.806;2023-02-28T05:18:41;4.97;;;3.23;;
19347;SDS011;9810;52.480;9.806;2023-02-28T05:21:18;12.10;;;3.80;;
19347;SDS011;9810;52.480;9.806;2023-02-28T05:23:54;11.30;;;3.37;;
19347;SDS011;9810;52.480;9.806;2023-02-28T05:26:23;9.00;;;3.40;;
19347;SDS011;9810;52.480;9.806;2023-02-28T05:28:52;8.13;;;4.17;;
19347;SDS011;9810;52.480;9.806;2023-02-28T05:31:20;5.33;;;3.53;;
19347;SDS011;9810;52.480;9.806;2023-02-28T05:33:47;7.27;;;3.93;;
19347;SDS011;9810;52.480;9.806;2023-02-28T05:36:14;5.87;;;3.10;;
19347;SDS011;9810;52.480;9.806;2023-02-28T05:38:41;7.73;;;3.37;;
19347;SDS011;9810;52.480;9.806;2023-02-28T05:41:09;8.10;;;3.17;;
19347;SDS011;9810;52.480;9.806;2023-02-28T05:43:37;11.23;;;4.30;;
19347;SDS011;9810;52.480;9.806;2023-02-28T05:46:07;5.37;;;3.70;;
19347;SDS011;9810;52.480;9.806;2023-02-28T05:48:36;7.33;;;4.53;;
19347;SDS011;9810;52.480;9.806;2023-02-28T05:51:05;6.53;;;3.93;;
19347;SDS011;9810;52.480;9.806;2023-02-28T05:53:34;11.27;;;3.47;;
19347;SDS011;9810;52.480;9.806;2023-02-28T05:56:02;9.13;;;4.53;;
19347;SDS011;9810;52.480;9.806;2023-02-28T05:58:30;7.63;;;4.70;;
19347;SDS011;9810;52.480;9.806;2023-02-28T06:00:58;12.70;;;5.40;;
19347;SDS011;9810;52.480;9.806;2023-02-28T06:03:28;8.17;;;5.57;;
19347;SDS011;9810;52.480;9.806;2023-02-28T06:05:55;11.33;;;6.97;;
19347;SDS011;9810;52.480;9.806;2023-02-28T06:08:23;15.50;;;7.17;;
19347;SDS011;9810;52.480;9.806;2023-02-28T06:10:50;13.13;;;7.03;;
19347;SDS011;9810;52.480;9.806;2023-02-28T06:13:18;11.53;;;6.23;;
19347;SDS011;9810;52.480;9.806;2023-02-28T06:15:45;9.40;;;2.10;;
19347;SDS011;9810;52.480;9.806;2023-02-28T06:18:12;6.33;;;3.13;;
19347;SDS011;9810;52.480;9.806;2023-02-28T06:20:41;6.80;;;3.63;;
19347;SDS011;9810;52.480;9.806;2023-02-28T06:23:12;6.23;;;3.67;;
19347;SDS011;9810;52.480;9.806;2023-02-28T06:25:39;10.37;;;3.87;;
19347;SDS011;9810;52.480;9.806;2023-02-28T06:28:10;10.40;;;2.93;;
19347;SDS011;9810;52.480;9.806;2023-02-28T06:30:38;4.53;;;2.77;;
19347;SDS011;9810;52.480;9.806;2023-02-28T06:33:05;7.47;;;3.30;;
19347;SDS011;9810;52.480;9.806;2023-02-28T06:35:32;7.20;;;3.83;;
19347;SDS011;9810;52.480;9.806;2023-02-28T06:38:01;7.07;;;3.07;;
19347;SDS011;9810;52.480;9.806;2023-02-28T06:40:31;8.33;;;3.23;;
19347;SDS011;9810;52.480;9.806;2023-02-28T06:43:00;6.13;;;4.20;;
19347;SDS011;9810;52.480;9.806;2023-02-28T06:45:27;9.23;;;5.17;;
19347;SDS011;9810;52.480;9.806;2023-02-28T06:47:54;4.97;;;3.07;;
19347;SDS011;9810;52.480;9.806;2023-02-28T06:50:23;5.20;;;3.50;;
19347;SDS011;9810;52.480;9.806;2023-02-28T06:52:50;8.23;;;4.20;;
19347;SDS011;9810;52.480;9.806;2023-02-28T06:55:22;5.40;;;3.93;;
19347;SDS011;9810;52.480;9.806;2023-02-28T06:57:49;8.50;;;3.60;;
19347;SDS011;9810;52.480;9.806;2023-02-28T07:00:17;4.50;;;3.60;;
19347;SDS011;9810;52.480;9.806;2023-02-28T07:02:44;5.93;;;4.13;;
19347;SDS011;9810;52.480;9.806;2023-02-28T07:05:12;9.87;;;4.53;;
19347;SDS011;9810;52.480;9.806;2023-02-28T07:07:40;6.23;;;4.20;;
19347;SDS011;9810;52.480;9.806;2023-02-28T07:10:10;13.37;;;4.90;;
19347;SDS011;9810;52.480;9.806;2023-02-28T07:12:40;8.67;;;4.47;;
19347;SDS011;9810;52.480;9.806;2023-02-28T07:15:07;7.23;;;4.37;;
19347;SDS011;9810;52.480;9.806;2023-02-28T07:17:35;9.73;;;4.93;;
19347;SDS011;9810;52.480;9.806;2023-02-28T07:20:03;7.40;;;4.97;;
19347;SDS011;9810;52.480;9.806;2023-02-28T07:22:31;9.13;;;5.73;;
19347;SDS011;9810;52.480;9.806;2023-02-28T07:24:58;8.70;;;5.63;;
19347;SDS011;9810;52.480;9.806;2023-02-28T07:27:25;11.77;;;5.93;;
19347;SDS011;9810;52.480;9.806;2023-02-28T07:29:54;11.87;;;7.37;;
19347;SDS011;9810;52.480;9.806;2023-02-28T07:32:22;12.63;;;6.43;;
19347;SDS011;9810;52.480;9.806;2023-02-28T07:34:49;12.00;;;7.57;;
19347;SDS011;9810;52.480;9.806;2023-02-28T07:37:16;13.23;;;7.63;;
19347;SDS011;9810;52.480;9.806;2023-02-28T07:39:44;13.17;;;7.47;;
19347;SDS011;9810;52.480;9.806;2023-02-28T07:42:11;14.83;;;8.27;;
19347;SDS011;9810;52.480;9.806;2023-02-28T07:44:38;12.30;;;7.67;;
19347;SDS011;9810;52.480;9.806;2023-02-28T07:47:09;14.13;;;7.60;;
19347;SDS011;9810;52.480;9.806;2023-02-28T07:49:37;11.67;;;5.90;;
19347;SDS011;9810;52.480;9.806;2023-02-28T07:52:04;7.33;;;5.50;;
19347;SDS011;9810;52.480;9.806;2023-02-28T07:54:33;7.40;;;5.37;;
19347;SDS011;9810;52.480;9.806;2023-02-28T07:57:00;10.13;;;5.50;;
19347;SDS011;9810;52.480;9.806;2023-02-28T07:59:28;8.67;;;5.37;;
19347;SDS011;9810;52.480;9.806;2023-02-28T08:01:58;6.80;;;4.30;;
19347;SDS011;9810;52.480;9.806;2023-02-28T08:04:27;10.43;;;4.83;;
19347;SDS011;9810;52.480;9.806;2023-02-28T08:06:58;9.63;;;4.50;;
19347;SDS011;9810;52.480;9.806;2023-02-28T08:09:26;8.97;;;4.50;;
19347;SDS011;9810;52.480;9.806;2023-02-28T08:11:55;8.87;;;4.70;;
19347;SDS011;9810;52.480;9.806;2023-02-28T08:14:23;7.13;;;4.27;;
19347;SDS011;9810;52.480;9.806;2023-02-28T08:16:50;5.93;;;3.87;;
19347;SDS011;9810;52.480;9.806;2023-02-28T08:19:17;5.17;;;3.57;;
19347;SDS011;9810;52.480;9.806;2023-02-28T08:21:46;6.70;;;3.93;;
19347;SDS011;9810;52.480;9.806;2023-02-28T08:24:14;6.00;;;3.53;;
19347;SDS011;9810;52.480;9.806;2023-02-28T08:26:41;5.67;;;3.43;;
19347;SDS011;9810;52.480;9.806;2023-02-28T08:29:08;7.40;;;3.93;;
19347;SDS011;9810;52.480;9.806;2023-02-28T08:31:36;7.07;;;3.43;;
19347;SDS011;9810;52.480;9.806;2023-02-28T08:34:04;6.10;;;4.30;;
19347;SDS011;9810;52.480;9.806;2023-02-28T08:36:32;7.00;;;3.40;;
19347;SDS011;9810;52.480;9.806;2023-02-28T08:39:02;6.20;;;3.57;;
19347;SDS011;9810;52.480;9.806;2023-02-28T08:41:30;5.80;;;3.73;;
19347;SDS011;9810;52.480;9.806;2023-02-28T08:43:57;6.33;;;3.20;;
19347;SDS011;9810;52.480;9.806;2023-02-28T08:46:25;5.87;;;3.73;;
19347;SDS011;9810;52.480;9.806;2023-02-28T08:48:53;7.07;;;3.43;;
19347;SDS011;9810;52.480;9.806;2023-02-28T08:51:21;6.53;;;3.40;;
19347;SDS011;9810;52.480;9.806;2023-02-28T08:53:51;7.70;;;3.13;;
19347;SDS011;9810;52.480;9.806;2023-02-28T08:56:20;5.10;;;3.10;;
19347;SDS011;9810;52.480;9.806;2023-02-28T08:58:49;5.50;;;3.27;;
19347;SDS011;9810;52.480;9.806;2023-02-28T09:01:17;5.10;;;3.00;;
19347;SDS011;9810;52.480;9.806;2023-02-28T09:03:46;6.50;;;3.10;;
19347;SDS011;9810;52.480;9.806;2023-02-28T09:06:16;5.27;;;3.13;;
19347;SDS011;9810;52.480;9.806;2023-02-28T09:08:44;4.07;;;2.80;;
19347;SDS011;9810;52.480;9.806;2023-02-28T09:11:12;4.30;;;2.63;;
19347;SDS011;9810;52.480;9.806;2023-02-28T09:13:41;2.93;;;2.40;;
19347;SDS011;9810;52.480;9.806;2023-02-28T09:16:10;3.57;;;2.20;;
19347;SDS011;9810;52.480;9.806;2023-02-28T09:18:38;2.23;;;1.67;;
19347;SDS011;9810;52.480;9.806;2023-02-28T09:21:07;4.37;;;2.47;;
19347;SDS011;9810;52.480;9.806;2023-02-28T09:23:38;2.13;;;1.70;;
19347;SDS011;9810;52.480;9.806;2023-02-28T09:26:06;3.53;;;1.30;;
19347;SDS011;9810;52.480;9.806;2023-02-28T09:28:33;3.27;;;1.87;;
19347;SDS011;9810;52.480;9.806;2023-02-28T09:31:02;3.03;;;1.70;;
19347;SDS011;9810;52.480;9.806;2023-02-28T09:33:30;2.10;;;1.90;;
19347;SDS011;9810;52.480;9.806;2023-02-28T09:35:59;2.80;;;1.57;;
19347;SDS011;9810;52.480;9.806;2023-02-28T09:38:27;3.13;;;1.57;;
19347;SDS011;9810;52.480;9.806;2023-02-28T09:40:55;3.80;;;2.10;;
19347;SDS011;9810;52.480;9.806;2023-02-28T09:43:25;3.80;;;1.50;;
19347;SDS011;9810;52.480;9.806;2023-02-28T09:45:56;2.87;;;2.03;;
19347;SDS011;9810;52.480;9.806;2023-02-28T09:48:29;1.97;;;1.50;;
19347;SDS011;9810;52.480;9.806;2023-02-28T09:51:02;2.23;;;1.60;;
19347;SDS011;9810;52.480;9.806;2023-02-28T09:53:32;1.93;;;1.47;;
19347;SDS011;9810;52.480;9.806;2023-02-28T09:56:04;3.60;;;1.67;;
19347;SDS011;9810;52.480;9.806;2023-02-28T09:58:37;4.87;;;1.83;;
19347;SDS011;9810;52.480;9.806;2023-02-28T10:01:12;3.17;;;1.83;;
19347;SDS011;9810;52.480;9.806;2023-02-28T10:03:50;2.43;;;1.20;;
19347;SDS011;9810;52.480;9.806;2023-02-28T10:06:25;1.50;;;1.33;;
19347;SDS011;9810;52.480;9.806;2023-02-28T10:08:58;1.47;;;1.23;;
19347;SDS011;9810;52.480;9.806;2023-02-28T10:11:28;1.77;;;1.30;;
19347;SDS011;9810;52.480;9.806;2023-02-28T10:13:59;1.47;;;1.33;;
19347;SDS011;9810;52.480;9.806;2023-02-28T10:16:31;2.10;;;1.30;;
19347;SDS011;9810;52.480;9.806;2023-02-28T10:19:04;1.70;;;1.53;;
19347;SDS011;9810;52.480;9.806;2023-02-28T10:21:36;3.80;;;1.27;;
19347;SDS011;9810;52.480;9.806;2023-02-28T10:24:13;2.42;;;1.40;;
19347;SDS011;9810;52.480;9.806;2023-02-28T10:26:47;4.37;;;1.20;;
19347;SDS011;9810;52.480;9.806;2023-02-28T10:29:16;4.67;;;2.30;;
19347;SDS011;9810;52.480;9.806;2023-02-28T10:31:43;1.50;;;1.40;;
19347;SDS011;9810;52.480;9.806;2023-02-28T10:34:13;1.70;;;1.10;;
19347;SDS011;9810;52.480;9.806;2023-02-28T10:36:40;1.97;;;1.07;;
19347;SDS011;9810;52.480;9.806;2023-02-28T10:39:33;1.60;;;1.20;;
19347;SDS011;9810;52.480;9.806;2023-02-28T10:42:02;1.60;;;1.50;;
19347;SDS011;9810;52.480;9.806;2023-02-28T10:44:31;3.63;;;1.50;;
19347;SDS011;9810;52.480;9.806;2023-02-28T10:46:59;2.73;;;1.10;;
19347;SDS011;9810;52.480;9.806;2023-02-28T10:49:31;1.83;;;1.30;;
19347;SDS011;9810;52.480;9.806;2023-02-28T10:52:03;3.07;;;1.27;;
19347;SDS011;9810;52.480;9.806;2023-02-28T10:54:31;2.73;;;1.47;;
19347;SDS011;9810;52.480;9.806;2023-02-28T10:57:07;0.83;;;0.63;;
19347;SDS011;9810;52.480;9.806;2023-02-28T10:59:41;1.20;;;1.10;;
19347;SDS011;9810;52.480;9.806;2023-02-28T11:04:58;2.30;;;1.40;;
19347;SDS011;9810;52.480;9.806;2023-02-28T11:07:26;1.17;;;1.07;;
19347;SDS011;9810;52.480;9.806;2023-02-28T11:09:55;1.40;;;1.13;;
19347;SDS011;9810;52.480;9.806;2023-02-28T11:12:25;2.67;;;1.10;;
19347;SDS011;9810;52.480;9.806;2023-02-28T11:14:55;2.10;;;1.00;;
19347;SDS011;9810;52.480;9.806;2023-02-28T11:17:28;1.17;;;1.00;;
19347;SDS011;9810;52.480;9.806;2023-02-28T11:19:59;2.10;;;1.00;;
19347;SDS011;9810;52.480;9.806;2023-02-28T11:22:32;4.67;;;0.80;;
19347;SDS011;9810;52.480;9.806;2023-02-28T11:25:06;1.37;;;0.80;;
19347;SDS011;9810;52.480;9.806;2023-02-28T11:27:42;2.47;;;0.73;;
19347;SDS011;9810;52.480;9.806;2023-02-28T11:30:23;1.30;;;0.60;;
19347;SDS011;9810;52.480;9.806;2023-02-28T11:32:55;0.50;;;0.50;;
19347;SDS011;9810;52.480;9.806;2023-02-28T11:35:26;0.83;;;0.50;;
19347;SDS011;9810;52.480;9.806;2023-02-28T11:37:58;2.63;;;0.70;;
19347;SDS011;9810;52.480;9.806;2023-02-28T11:40:28;2.37;;;0.93;;
19347;SDS011;9810;52.480;9.806;2023-02-28T11:43:05;1.07;;;0.87;;
19347;SDS011;9810;52.480;9.806;2023-02-28T11:45:44;2.27;;;0.80;;
19347;SDS011;9810;52.480;9.806;2023-02-28T11:48:20;2.00;;;1.10;;
19347;SDS011;9810;52.480;9.806;2023-02-28T11:50:54;0.80;;;0.80;;
19347;SDS011;9810;52.480;9.806;2023-02-28T11:53:42;1.00;;;0.77;;
19347;SDS011;9810;52.480;9.806;2023-02-28T11:56:23;1.40;;;0.67;;
19347;SDS011;9810;52.480;9.806;2023-02-28T11:59:01;1.13;;;0.50;;
19347;SDS011;9810;52.480;9.806;2023-02-28T12:01:44;1.47;;;0.50;;
19347;SDS011;9810;52.480;9.806;2023-02-28T12:04:28;0.80;;;0.80;;
19347;SDS011;9810;52.480;9.806;2023-02-28T12:07:09;2.00;;;0.50;;
19347;SDS011;9810;52.480;9.806;2023-02-28T12:09:47;0.60;;;0.60;;
19347;SDS011;9810;52.480;9.806;2023-02-28T12:12:27;1.00;;;0.90;;
19347;SDS011;9810;52.480;9.806;2023-02-28T12:15:16;1.53;;;0.70;;
19347;SDS011;9810;52.480;9.806;2023-02-28T12:17:56;0.80;;;0.70;;
19347;SDS011;9810;52.480;9.806;2023-02-28T12:20:34;2.20;;;0.90;;
19347;SDS011;9810;52.480;9.806;2023-02-28T12:23:17;2.87;;;0.90;;
19347;SDS011;9810;52.480;9.806;2023-02-28T12:25:57;0.97;;;0.93;;
19347;SDS011;9810;52.480;9.806;2023-02-28T12:28:30;0.63;;;0.60;;
19347;SDS011;9810;52.480;9.806;2023-02-28T12:31:00;2.17;;;0.90;;
19347;SDS011;9810;52.480;9.806;2023-02-28T12:33:34;0.70;;;0.70;;
19347;SDS011;9810;52.480;9.806;2023-02-28T12:36:08;1.27;;;0.80;;
19347;SDS011;9810;52.480;9.806;2023-02-28T12:38:40;2.97;;;1.20;;
19347;SDS011;9810;52.480;9.806;2023-02-28T12:41:11;3.10;;;1.30;;
19347;SDS011;9810;52.480;9.806;2023-02-28T12:43:41;1.33;;;0.90;;
19347;SDS011;9810;52.480;9.806;2023-02-28T12:46:14;1.70;;;1.23;;
19347;SDS011;9810;52.480;9.806;2023-02-28T12:48:48;2.37;;;1.00;;
19347;SDS011;9810;52.480;9.806;2023-02-28T12:51:20;1.07;;;0.97;;
19347;SDS011;9810;52.480;9.806;2023-02-28T12:53:54;1.97;;;0.93;;
19347;SDS011;9810;52.480;9.806;2023-02-28T12:56:31;1.60;;;1.10;;
19347;SDS011;9810;52.480;9.806;2023-02-28T12:59:03;2.83;;;1.23;;
19347;SDS011;9810;52.480;9.806;2023-02-28T13:01:54;1.00;;;0.90;;
19347;SDS011;9810;52.480;9.806;2023-02-28T13:07:31;1.57;;;0.80;;
19347;SDS011;9810;52.480;9.806;2023-02-28T13:10:19;4.10;;;1.47;;
19347;SDS011;9810;52.480;9.806;2023-02-28T13:12:47;1.93;;;0.90;;
19347;SDS011;9810;52.480;9.806;2023-02-28T13:15:18;1.13;;;0.83;;
19347;SDS011;9810;52.480;9.806;2023-02-28T13:17:51;0.93;;;0.63;;
19347;SDS011;9810;52.480;9.806;2023-02-28T13:20:20;1.00;;;0.90;;
19347;SDS011;9810;52.480;9.806;2023-02-28T13:22:51;1.33;;;1.23;;
19347;SDS011;9810;52.480;9.806;2023-02-28T13:34:33;4.13;;;1.47;;
19347;SDS011;9810;52.480;9.806;2023-02-28T13:40:06;1.80;;;1.10;;
19347;SDS011;9810;52.480;9.806;2023-02-28T13:42:50;1.07;;;0.90;;
19347;SDS011;9810;52.480;9.806;2023-02-28T13:45:22;1.23;;;1.10;;
19347;SDS011;9810;52.480;9.806;2023-02-28T13:47:51;0.90;;;0.80;;
19347;SDS011;9810;52.480;9.806;2023-02-28T13:50:30;1.27;;;1.00;;
19347;SDS011;9810;52.480;9.806;2023-02-28T13:53:12;1.93;;;1.13;;
19347;SDS011;9810;52.480;9.806;2023-02-28T13:55:53;1.43;;;1.17;;
19347;SDS011;9810;52.480;9.806;2023-02-28T13:58:42;3.70;;;1.07;;
19347;SDS011;9810;52.480;9.806;2023-02-28T14:01:16;1.43;;;0.93;;
19347;SDS011;9810;52.480;9.806;2023-02-28T14:04:02;2.70;;;1.20;;
19347;SDS011;9810;52.480;9.806;2023-02-28T14:06:52;5.20;;;1.20;;
19347;SDS011;9810;52.480;9.806;2023-02-28T14:09:23;1.60;;;0.90;;
19347;SDS011;9810;52.480;9.806;2023-02-28T14:11:52;3.17;;;1.30;;
19347;SDS011;9810;52.480;9.806;2023-02-28T14:17:23;2.07;;;1.20;;
19347;SDS011;9810;52.480;9.806;2023-02-28T14:19:52;2.90;;;1.00;;
19347;SDS011;9810;52.480;9.806;2023-02-28T14:22:27;11.37;;;6.47;;
19347;SDS011;9810;52.480;9.806;2023-02-28T14:25:17;2.40;;;1.30;;
19347;SDS011;9810;52.480;9.806;2023-02-28T14:27:53;2.37;;;1.40;;
19347;SDS011;9810;52.480;9.806;2023-02-28T14:30:48;1.20;;;1.10;;
19347;SDS011;9810;52.480;9.806;2023-02-28T14:33:25;1.77;;;1.10;;
19347;SDS011;9810;52.480;9.806;2023-02-28T14:36:01;1.87;;;1.27;;
19347;SDS011;9810;52.480;9.806;2023-02-28T14:38:36;3.53;;;1.17;;
19347;SDS011;9810;52.480;9.806;2023-02-28T14:41:14;2.00;;;1.00;;
19347;SDS011;9810;52.480;9.806;2023-02-28T14:43:53;1.83;;;1.10;;
19347;SDS011;9810;52.480;9.806;2023-02-28T14:46:26;2.80;;;1.13;;
19347;SDS011;9810;52.480;9.806;2023-02-28T14:49:01;1.93;;;1.20;;
19347;SDS011;9810;52.480;9.806;2023-02-28T14:51:31;3.57;;;1.20;;
19347;SDS011;9810;52.480;9.806;2023-02-28T14:54:01;5.20;;;1.60;;
19347;SDS011;9810;52.480;9.806;2023-02-28T14:56:33;1.90;;;1.50;;
19347;SDS011;9810;52.480;9.806;2023-02-28T14:59:04;5.03;;;1.20;;
19347;SDS011;9810;52.480;9.806;2023-02-28T15:01:49;2.73;;;1.27;;
19347;SDS011;9810;52.480;9.806;2023-02-28T15:04:18;1.50;;;1.40;;
19347;SDS011;9810;52.480;9.806;2023-02-28T15:09:36;1.23;;;1.13;;
19347;SDS011;9810;52.480;9.806;2023-02-28T15:12:03;2.33;;;1.20;;
19347;SDS011;9810;52.480;9.806;2023-02-28T15:14:31;2.13;;;1.37;;
19347;SDS011;9810;52.480;9.806;2023-02-28T15:17:02;4.17;;;1.83;;
19347;SDS011;9810;52.480;9.806;2023-02-28T15:19:33;4.73;;;1.17;;
19347;SDS011;9810;52.480;9.806;2023-02-28T15:22:04;2.10;;;1.50;;
19347;SDS011;9810;52.480;9.806;2023-02-28T15:24:36;5.63;;;1.97;;
19347;SDS011;9810;52.480;9.806;2023-02-28T15:27:06;3.93;;;1.37;;
19347;SDS011;9810;52.480;9.806;2023-02-28T15:29:42;3.57;;;1.40;;
19347;SDS011;9810;52.480;9.806;2023-02-28T15:32:23;1.43;;;1.17;;
19347;SDS011;9810;52.480;9.806;2023-02-28T15:34:53;4.13;;;1.57;;
19347;SDS011;9810;52.480;9.806;2023-02-28T15:37:28;5.47;;;3.43;;
19347;SDS011;9810;52.480;9.806;2023-02-28T15:40:04;3.13;;;1.70;;
19347;SDS011;9810;52.480;9.806;2023-02-28T15:42:38;14.53;;;5.90;;
19347;SDS011;9810;52.480;9.806;2023-02-28T15:45:06;3.83;;;3.30;;
19347;SDS011;9810;52.480;9.806;2023-02-28T15:47:57;2.33;;;1.73;;
19347;SDS011;9810;52.480;9.806;2023-02-28T15:50:27;3.23;;;1.93;;
19347;SDS011;9810;52.480;9.806;2023-02-28T15:52:55;1.57;;;1.47;;